sensor_id;sensor_type;location;lat;lon;timestamp;pressure;altitude;pressure_sealevel;temperature;humidity
71149;BME280;59072;42.144;25.200;2022-08-24T00:01:13;99644.97;;;23.12;94.01
71149;BME280;59072;42.144;25.200;2022-08-24T00:03:40;99635.84;;;22.85;93.55
71149;BME280;59072;42.144;25.200;2022-08-24T00:06:08;99647.97;;;22.34;96.05
71149;BME280;59072;42.144;25.200;2022-08-24T00:08:35;99652.00;;;22.23;96.68
71149;BME280;59072;42.144;25.200;2022-08-24T00:11:01;99625.22;;;21.43;100.00
71149;BME280;59072;42.144;25.200;2022-08-24T00:13:27;99656.59;;;21.31;100.00
71149;BME280;59072;42.144;25.200;2022-08-24T00:15:53;99666.75;;;21.39;100.00
71149;BME280;59072;42.144;25.200;2022-08-24T00:18:18;99664.94;;;21.34;100.00
71149;BME280;59072;42.144;25.200;2022-08-24T00:20:44;99666.94;;;21.28;100.00
71149;BME280;59072;42.144;25.200;2022-08-24T00:23:11;99638.88;;;20.92;100.00
71149;BME280;59072;42.144;25.200;2022-08-24T00:25:36;99648.41;;;20.89;100.00
71149;BME280;59072;42.144;25.200;2022-08-24T00:28:03;99665.72;;;21.07;100.00
71149;BME280;59072;42.144;25.200;2022-08-24T00:30:29;99667.75;;;21.15;100.00
71149;BME280;59072;42.144;25.200;2022-08-24T00:32:56;99663.88;;;20.89;100.00
71149;BME280;59072;42.144;25.200;2022-08-24T00:35:22;99659.25;;;20.89;100.00
71149;BME280;59072;42.144;25.200;2022-08-24T00:37:50;99643.91;;;20.84;100.00
71149;BME280;59072;42.144;25.200;2022-08-24T00:40:21;99642.88;;;20.80;100.00
71149;BME280;59072;42.144;25.200;2022-08-24T00:42:47;99656.28;;;21.04;100.00
71149;BME280;59072;42.144;25.200;2022-08-24T00:45:15;99652.84;;;20.99;100.00
71149;BME280;59072;42.144;25.200;2022-08-24T00:47:54;99647.25;;;21.09;100.00
71149;BME280;59072;42.144;25.200;2022-08-24T00:53:00;99645.63;;;21.08;100.00
71149;BME280;59072;42.144;25.200;2022-08-24T00:55:31;99658.03;;;20.81;100.00
71149;BME280;59072;42.144;25.200;2022-08-24T00:58:05;99656.44;;;20.80;100.00
71149;BME280;59072;42.144;25.200;2022-08-24T01:00:35;99655.31;;;20.81;100.00
71149;BME280;59072;42.144;25.200;2022-08-24T01:03:05;99652.78;;;20.71;100.00
71149;BME280;59072;42.144;25.200;2022-08-24T01:05:32;99660.69;;;21.00;100.00
71149;BME280;59072;42.144;25.200;2022-08-24T01:07:59;99665.44;;;21.22;100.00
71149;BME280;59072;42.144;25.200;2022-08-24T01:10:30;99652.66;;;20.95;100.00
71149;BME280;59072;42.144;25.200;2022-08-24T01:12:59;99670.34;;;21.06;100.00
71149;BME280;59072;42.144;25.200;2022-08-24T01:15:29;99676.41;;;20.84;100.00
71149;BME280;59072;42.144;25.200;2022-08-24T01:17:57;99676.56;;;21.07;100.00
71149;BME280;59072;42.144;25.200;2022-08-24T01:20:45;99674.94;;;21.06;100.00
71149;BME280;59072;42.144;25.200;2022-08-24T01:25:56;99661.25;;;20.83;100.00
71149;BME280;59072;42.144;25.200;2022-08-24T01:28:22;99668.47;;;20.88;100.00
71149;BME280;59072;42.144;25.200;2022-08-24T01:30:48;99663.03;;;20.74;100.00
71149;BME280;59072;42.144;25.200;2022-08-24T01:33:25;99684.41;;;21.22;100.00
71149;BME280;59072;42.144;25.200;2022-08-24T01:36:00;99686.84;;;21.24;100.00
71149;BME280;59072;42.144;25.200;2022-08-24T01:38:27;99691.25;;;21.20;100.00
71149;BME280;59072;42.144;25.200;2022-08-24T01:40:56;99682.00;;;21.07;100.00
71149;BME280;59072;42.144;25.200;2022-08-24T01:43:22;99696.50;;;21.30;100.00
71149;BME280;59072;42.144;25.200;2022-08-24T01:45:49;99702.91;;;21.20;100.00
71149;BME280;59072;42.144;25.200;2022-08-24T01:48:15;99700.09;;;21.25;100.00
71149;BME280;59072;42.144;25.200;2022-08-24T01:50:40;99696.91;;;21.37;100.00
71149;BME280;59072;42.144;25.200;2022-08-24T01:53:07;99691.09;;;21.72;99.05
71149;BME280;59072;42.144;25.200;2022-08-24T01:55:33;99693.22;;;21.75;98.31
71149;BME280;59072;42.144;25.200;2022-08-24T01:57:58;99707.00;;;21.64;98.01
71149;BME280;59072;42.144;25.200;2022-08-24T02:00:25;99715.41;;;21.35;99.31
71149;BME280;59072;42.144;25.200;2022-08-24T02:02:51;99693.25;;;21.14;99.96
71149;BME280;59072;42.144;25.200;2022-08-24T02:05:17;99712.66;;;21.21;97.59
71149;BME280;59072;42.144;25.200;2022-08-24T02:07:42;99708.25;;;20.93;99.65
71149;BME280;59072;42.144;25.200;2022-08-24T02:10:10;99696.91;;;20.91;100.00
71149;BME280;59072;42.144;25.200;2022-08-24T02:12:39;99713.25;;;20.85;100.00
71149;BME280;59072;42.144;25.200;2022-08-24T02:15:06;99718.25;;;20.78;100.00
71149;BME280;59072;42.144;25.200;2022-08-24T02:17:33;99720.81;;;20.70;100.00
71149;BME280;59072;42.144;25.200;2022-08-24T02:20:00;99718.41;;;20.68;100.00
71149;BME280;59072;42.144;25.200;2022-08-24T02:22:26;99699.50;;;20.63;100.00
71149;BME280;59072;42.144;25.200;2022-08-24T02:24:52;99707.69;;;20.58;100.00
71149;BME280;59072;42.144;25.200;2022-08-24T02:27:17;99698.31;;;20.50;100.00
71149;BME280;59072;42.144;25.200;2022-08-24T02:29:43;99708.78;;;20.57;100.00
71149;BME280;59072;42.144;25.200;2022-08-24T02:32:09;99722.06;;;20.39;100.00
71149;BME280;59072;42.144;25.200;2022-08-24T02:34:37;99711.38;;;20.29;100.00
71149;BME280;59072;42.144;25.200;2022-08-24T02:37:03;99708.56;;;20.34;100.00
71149;BME280;59072;42.144;25.200;2022-08-24T02:39:29;99708.53;;;19.96;100.00
71149;BME280;59072;42.144;25.200;2022-08-24T02:41:55;99717.88;;;19.85;100.00
71149;BME280;59072;42.144;25.200;2022-08-24T02:44:21;99707.22;;;19.70;100.00
71149;BME280;59072;42.144;25.200;2022-08-24T02:46:47;99706.16;;;19.65;100.00
71149;BME280;59072;42.144;25.200;2022-08-24T02:49:12;99701.78;;;19.45;100.00
71149;BME280;59072;42.144;25.200;2022-08-24T02:51:42;99712.59;;;19.45;100.00
71149;BME280;59072;42.144;25.200;2022-08-24T02:54:08;99707.00;;;19.37;100.00
71149;BME280;59072;42.144;25.200;2022-08-24T02:56:34;99703.50;;;19.36;100.00
71149;BME280;59072;42.144;25.200;2022-08-24T02:59:00;99714.84;;;19.62;100.00
71149;BME280;59072;42.144;25.200;2022-08-24T03:01:27;99702.34;;;19.42;100.00
71149;BME280;59072;42.144;25.200;2022-08-24T03:03:54;99716.38;;;19.44;100.00
71149;BME280;59072;42.144;25.200;2022-08-24T03:06:19;99705.06;;;19.42;100.00
71149;BME280;59072;42.144;25.200;2022-08-24T03:08:45;99712.66;;;19.64;100.00
71149;BME280;59072;42.144;25.200;2022-08-24T03:11:11;99718.19;;;19.54;100.00
71149;BME280;59072;42.144;25.200;2022-08-24T03:13:37;99703.09;;;19.48;100.00
71149;BME280;59072;42.144;25.200;2022-08-24T03:16:04;99718.19;;;19.54;100.00
71149;BME280;59072;42.144;25.200;2022-08-24T03:18:30;99718.81;;;19.46;100.00
71149;BME280;59072;42.144;25.200;2022-08-24T03:20:58;99697.81;;;19.38;100.00
71149;BME280;59072;42.144;25.200;2022-08-24T03:23:25;99705.44;;;19.31;100.00
71149;BME280;59072;42.144;25.200;2022-08-24T03:25:53;99716.75;;;19.33;100.00
71149;BME280;59072;42.144;25.200;2022-08-24T03:28:22;99700.03;;;19.31;100.00
71149;BME280;59072;42.144;25.200;2022-08-24T03:30:48;99718.28;;;19.44;100.00
71149;BME280;59072;42.144;25.200;2022-08-24T03:33:14;99712.72;;;19.35;100.00
71149;BME280;59072;42.144;25.200;2022-08-24T03:35:40;99723.84;;;19.58;100.00
71149;BME280;59072;42.144;25.200;2022-08-24T03:38:06;99710.72;;;19.70;100.00
71149;BME280;59072;42.144;25.200;2022-08-24T03:40:31;99731.00;;;19.73;100.00
71149;BME280;59072;42.144;25.200;2022-08-24T03:42:58;99734.78;;;19.96;100.00
71149;BME280;59072;42.144;25.200;2022-08-24T03:45:24;99729.72;;;19.89;100.00
71149;BME280;59072;42.144;25.200;2022-08-24T03:47:50;99724.66;;;20.06;100.00
71149;BME280;59072;42.144;25.200;2022-08-24T03:50:18;99735.34;;;20.17;100.00
71149;BME280;59072;42.144;25.200;2022-08-24T03:52:44;99734.88;;;20.10;100.00
71149;BME280;59072;42.144;25.200;2022-08-24T03:55:10;99718.50;;;20.39;100.00
71149;BME280;59072;42.144;25.200;2022-08-24T03:57:35;99724.25;;;20.37;100.00
71149;BME280;59072;42.144;25.200;2022-08-24T04:00:03;99719.56;;;20.00;100.00
71149;BME280;59072;42.144;25.200;2022-08-24T04:02:29;99731.63;;;20.13;100.00
71149;BME280;59072;42.144;25.200;2022-08-24T04:04:54;99732.56;;;20.22;100.00
71149;BME280;59072;42.144;25.200;2022-08-24T04:07:20;99721.75;;;19.98;100.00
71149;BME280;59072;42.144;25.200;2022-08-24T04:09:45;99725.72;;;19.86;100.00
71149;BME280;59072;42.144;25.200;2022-08-24T04:12:11;99710.97;;;19.74;100.00
71149;BME280;59072;42.144;25.200;2022-08-24T04:14:37;99713.97;;;19.67;100.00
71149;BME280;59072;42.144;25.200;2022-08-24T04:17:03;99711.03;;;19.63;100.00
71149;BME280;59072;42.144;25.200;2022-08-24T04:19:28;99726.75;;;19.61;100.00
71149;BME280;59072;42.144;25.200;2022-08-24T04:21:54;99726.38;;;19.73;100.00
71149;BME280;59072;42.144;25.200;2022-08-24T04:24:21;99718.97;;;19.84;100.00
71149;BME280;59072;42.144;25.200;2022-08-24T04:26:47;99731.16;;;20.05;100.00
71149;BME280;59072;42.144;25.200;2022-08-24T04:29:14;99733.47;;;19.93;100.00
71149;BME280;59072;42.144;25.200;2022-08-24T04:31:41;99732.59;;;19.98;100.00
71149;BME280;59072;42.144;25.200;2022-08-24T04:34:08;99723.81;;;20.06;100.00
71149;BME280;59072;42.144;25.200;2022-08-24T04:36:34;99732.13;;;20.15;100.00
71149;BME280;59072;42.144;25.200;2022-08-24T04:39:00;99734.84;;;20.15;100.00
71149;BME280;59072;42.144;25.200;2022-08-24T04:41:26;99734.66;;;20.06;100.00
71149;BME280;59072;42.144;25.200;2022-08-24T04:43:51;99742.69;;;20.35;100.00
71149;BME280;59072;42.144;25.200;2022-08-24T04:46:18;99752.94;;;20.38;100.00
71149;BME280;59072;42.144;25.200;2022-08-24T04:48:46;99760.22;;;20.19;100.00
71149;BME280;59072;42.144;25.200;2022-08-24T04:51:14;99749.97;;;20.16;100.00
71149;BME280;59072;42.144;25.200;2022-08-24T04:53:42;99752.63;;;20.21;100.00
71149;BME280;59072;42.144;25.200;2022-08-24T04:56:17;99747.41;;;20.24;100.00
71149;BME280;59072;42.144;25.200;2022-08-24T04:58:44;99754.47;;;20.25;100.00
71149;BME280;59072;42.144;25.200;2022-08-24T05:01:14;99760.09;;;20.29;100.00
71149;BME280;59072;42.144;25.200;2022-08-24T05:03:43;99759.50;;;20.32;100.00
71149;BME280;59072;42.144;25.200;2022-08-24T05:06:10;99761.78;;;20.25;100.00
71149;BME280;59072;42.144;25.200;2022-08-24T05:08:36;99760.16;;;20.24;100.00
71149;BME280;59072;42.144;25.200;2022-08-24T05:11:04;99763.19;;;20.41;100.00
71149;BME280;59072;42.144;25.200;2022-08-24T05:13:33;99750.50;;;20.37;100.00
71149;BME280;59072;42.144;25.200;2022-08-24T05:15:59;99768.00;;;20.44;100.00
71149;BME280;59072;42.144;25.200;2022-08-24T05:18:24;99762.84;;;20.67;100.00
71149;BME280;59072;42.144;25.200;2022-08-24T05:20:54;99754.34;;;20.74;100.00
71149;BME280;59072;42.144;25.200;2022-08-24T05:23:21;99761.53;;;20.64;100.00
71149;BME280;59072;42.144;25.200;2022-08-24T05:25:47;99766.72;;;20.61;100.00
71149;BME280;59072;42.144;25.200;2022-08-24T05:28:12;99769.84;;;20.49;100.00
71149;BME280;59072;42.144;25.200;2022-08-24T05:30:38;99772.41;;;20.40;100.00
71149;BME280;59072;42.144;25.200;2022-08-24T05:33:03;99767.88;;;20.55;100.00
71149;BME280;59072;42.144;25.200;2022-08-24T05:35:29;99762.84;;;20.67;100.00
71149;BME280;59072;42.144;25.200;2022-08-24T05:37:54;99761.88;;;20.96;100.00
71149;BME280;59072;42.144;25.200;2022-08-24T05:40:20;99768.59;;;21.17;100.00
71149;BME280;59072;42.144;25.200;2022-08-24T05:42:46;99760.97;;;21.19;100.00
71149;BME280;59072;42.144;25.200;2022-08-24T05:45:12;99757.81;;;21.12;100.00
71149;BME280;59072;42.144;25.200;2022-08-24T05:47:38;99772.38;;;21.16;100.00
71149;BME280;59072;42.144;25.200;2022-08-24T05:50:04;99776.25;;;21.29;100.00
71149;BME280;59072;42.144;25.200;2022-08-24T05:52:30;99761.19;;;21.37;100.00
71149;BME280;59072;42.144;25.200;2022-08-24T05:54:57;99764.47;;;21.53;100.00
71149;BME280;59072;42.144;25.200;2022-08-24T05:57:24;99757.44;;;21.52;100.00
71149;BME280;59072;42.144;25.200;2022-08-24T05:59:50;99761.28;;;21.64;100.00
71149;BME280;59072;42.144;25.200;2022-08-24T06:02:17;99773.13;;;21.69;100.00
71149;BME280;59072;42.144;25.200;2022-08-24T06:04:43;99758.34;;;21.61;100.00
71149;BME280;59072;42.144;25.200;2022-08-24T06:07:09;99766.91;;;21.82;100.00
71149;BME280;59072;42.144;25.200;2022-08-24T06:09:36;99750.00;;;21.57;100.00
71149;BME280;59072;42.144;25.200;2022-08-24T06:12:02;99750.19;;;21.47;100.00
71149;BME280;59072;42.144;25.200;2022-08-24T06:14:28;99757.56;;;21.60;100.00
71149;BME280;59072;42.144;25.200;2022-08-24T06:16:54;99758.25;;;21.80;100.00
71149;BME280;59072;42.144;25.200;2022-08-24T06:19:19;99760.25;;;21.88;100.00
71149;BME280;59072;42.144;25.200;2022-08-24T06:21:49;99766.09;;;21.67;100.00
71149;BME280;59072;42.144;25.200;2022-08-24T06:24:15;99756.66;;;21.79;100.00
71149;BME280;59072;42.144;25.200;2022-08-24T06:26:43;99773.75;;;21.93;100.00
71149;BME280;59072;42.144;25.200;2022-08-24T06:29:28;99782.41;;;22.09;100.00
71149;BME280;59072;42.144;25.200;2022-08-24T06:31:54;99768.00;;;22.36;100.00
71149;BME280;59072;42.144;25.200;2022-08-24T06:34:21;99770.03;;;22.67;99.79
71149;BME280;59072;42.144;25.200;2022-08-24T06:36:47;99766.59;;;22.98;98.37
71149;BME280;59072;42.144;25.200;2022-08-24T06:39:12;99763.19;;;23.06;97.31
71149;BME280;59072;42.144;25.200;2022-08-24T06:41:39;99738.44;;;22.71;96.15
71149;BME280;59072;42.144;25.200;2022-08-24T06:44:06;99767.75;;;22.97;97.50
71149;BME280;59072;42.144;25.200;2022-08-24T06:46:32;99766.59;;;23.12;96.02
71149;BME280;59072;42.144;25.200;2022-08-24T06:48:58;99753.28;;;23.41;95.37
71149;BME280;59072;42.144;25.200;2022-08-24T06:51:23;99755.88;;;23.38;94.08
71149;BME280;59072;42.144;25.200;2022-08-24T06:53:50;99749.66;;;23.46;93.49
71149;BME280;59072;42.144;25.200;2022-08-24T06:56:16;99752.72;;;23.53;92.31
71149;BME280;59072;42.144;25.200;2022-08-24T06:58:43;99769.75;;;23.67;91.28
71149;BME280;59072;42.144;25.200;2022-08-24T07:01:19;99772.63;;;23.94;88.61
71149;BME280;59072;42.144;25.200;2022-08-24T07:03:45;99774.09;;;24.09;90.39
71149;BME280;59072;42.144;25.200;2022-08-24T07:06:11;99765.41;;;23.89;89.63
71149;BME280;59072;42.144;25.200;2022-08-24T07:08:39;99768.13;;;23.89;88.99
71149;BME280;59072;42.144;25.200;2022-08-24T07:11:06;99770.75;;;24.12;87.32
71149;BME280;59072;42.144;25.200;2022-08-24T07:13:32;99792.06;;;24.10;85.71
71149;BME280;59072;42.144;25.200;2022-08-24T07:15:59;99764.66;;;24.06;83.97
71149;BME280;59072;42.144;25.200;2022-08-24T07:18:25;99781.84;;;24.24;84.34
71149;BME280;59072;42.144;25.200;2022-08-24T07:20:50;99762.59;;;24.12;84.88
71149;BME280;59072;42.144;25.200;2022-08-24T07:23:17;99781.00;;;24.15;84.75
71149;BME280;59072;42.144;25.200;2022-08-24T07:25:44;99778.91;;;23.72;83.24
71149;BME280;59072;42.144;25.200;2022-08-24T07:28:10;99771.81;;;23.31;83.88
71149;BME280;59072;42.144;25.200;2022-08-24T07:30:36;99772.78;;;23.35;88.17
71149;BME280;59072;42.144;25.200;2022-08-24T07:33:03;99791.81;;;23.57;85.69
71149;BME280;59072;42.144;25.200;2022-08-24T07:35:29;99796.66;;;23.60;87.90
71149;BME280;59072;42.144;25.200;2022-08-24T07:37:56;99793.09;;;23.60;86.08
71149;BME280;59072;42.144;25.200;2022-08-24T07:40:23;99789.38;;;23.56;85.86
71149;BME280;59072;42.144;25.200;2022-08-24T07:42:51;99794.13;;;23.73;85.28
71149;BME280;59072;42.144;25.200;2022-08-24T07:45:17;99800.22;;;24.01;87.76
71149;BME280;59072;42.144;25.200;2022-08-24T07:47:44;99786.44;;;24.15;86.47
71149;BME280;59072;42.144;25.200;2022-08-24T07:50:11;99788.59;;;24.35;84.19
71149;BME280;59072;42.144;25.200;2022-08-24T07:52:37;99779.94;;;24.33;84.27
71149;BME280;59072;42.144;25.200;2022-08-24T07:55:04;99784.56;;;24.24;85.47
71149;BME280;59072;42.144;25.200;2022-08-24T07:57:30;99778.19;;;24.46;84.74
71149;BME280;59072;42.144;25.200;2022-08-24T07:59:58;99773.25;;;24.57;83.83
71149;BME280;59072;42.144;25.200;2022-08-24T08:02:24;99795.41;;;24.81;81.73
71149;BME280;59072;42.144;25.200;2022-08-24T08:04:50;99787.22;;;24.73;81.84
71149;BME280;59072;42.144;25.200;2022-08-24T08:07:15;99785.47;;;25.03;82.79
71149;BME280;59072;42.144;25.200;2022-08-24T08:09:42;99793.28;;;25.39;79.84
71149;BME280;59072;42.144;25.200;2022-08-24T08:12:07;99785.63;;;25.71;77.57
71149;BME280;59072;42.144;25.200;2022-08-24T08:14:34;99773.97;;;26.00;79.18
71149;BME280;59072;42.144;25.200;2022-08-24T08:17:00;99782.25;;;26.13;75.12
71149;BME280;59072;42.144;25.200;2022-08-24T08:19:27;99776.41;;;25.84;73.69
71149;BME280;59072;42.144;25.200;2022-08-24T08:21:52;99770.53;;;25.74;78.11
71149;BME280;59072;42.144;25.200;2022-08-24T08:24:38;99766.81;;;25.78;77.81
71149;BME280;59072;42.144;25.200;2022-08-24T08:27:04;99753.19;;;25.70;77.20
71149;BME280;59072;42.144;25.200;2022-08-24T08:29:34;99763.41;;;25.90;77.36
71149;BME280;59072;42.144;25.200;2022-08-24T08:32:00;99740.59;;;25.48;77.42
71149;BME280;59072;42.144;25.200;2022-08-24T08:34:26;99747.81;;;25.91;77.17
71149;BME280;59072;42.144;25.200;2022-08-24T08:36:52;99751.03;;;25.84;76.87
71149;BME280;59072;42.144;25.200;2022-08-24T08:39:20;99754.72;;;25.88;75.07
71149;BME280;59072;42.144;25.200;2022-08-24T08:47:21;99751.03;;;25.84;75.47
71149;BME280;59072;42.144;25.200;2022-08-24T08:55:41;99764.13;;;26.38;76.05
71149;BME280;59072;42.144;25.200;2022-08-24T09:03:57;99772.88;;;26.73;76.50
71149;BME280;59072;42.144;25.200;2022-08-24T09:30:03;99731.16;;;27.80;67.68
71149;BME280;59072;42.144;25.200;2022-08-24T09:35:18;99716.66;;;28.16;64.36
71149;BME280;59072;42.144;25.200;2022-08-24T09:59:58;99695.78;;;28.80;59.58
71149;BME280;59072;42.144;25.200;2022-08-24T10:08:27;99692.66;;;29.10;58.39
71149;BME280;59072;42.144;25.200;2022-08-24T10:14:02;99686.06;;;28.99;56.74
71149;BME280;59072;42.144;25.200;2022-08-24T10:31:09;99686.28;;;30.21;55.91
71149;BME280;59072;42.144;25.200;2022-08-24T10:36:26;99679.72;;;30.45;55.93
71149;BME280;59072;42.144;25.200;2022-08-24T10:53:54;99654.50;;;30.23;52.84
71149;BME280;59072;42.144;25.200;2022-08-24T11:01:36;99650.53;;;30.60;52.57
71149;BME280;59072;42.144;25.200;2022-08-24T11:04:10;99646.06;;;30.94;53.03
71149;BME280;59072;42.144;25.200;2022-08-24T11:06:43;99642.63;;;31.01;52.83
71149;BME280;59072;42.144;25.200;2022-08-24T11:09:12;99643.22;;;30.48;52.29
71149;BME280;59072;42.144;25.200;2022-08-24T11:11:46;99638.25;;;30.34;53.10
71149;BME280;59072;42.144;25.200;2022-08-24T11:14:25;99643.16;;;30.87;52.42
71149;BME280;59072;42.144;25.200;2022-08-24T11:17:13;99646.56;;;31.00;50.93
71149;BME280;59072;42.144;25.200;2022-08-24T11:19:38;99623.34;;;31.24;51.37
71149;BME280;59072;42.144;25.200;2022-08-24T11:22:24;99646.09;;;31.97;47.86
71149;BME280;59072;42.144;25.200;2022-08-24T11:24:53;99629.88;;;31.92;49.76
71149;BME280;59072;42.144;25.200;2022-08-24T11:27:28;99638.47;;;31.87;49.36
71149;BME280;59072;42.144;25.200;2022-08-24T11:29:58;99642.81;;;32.15;52.29
71149;BME280;59072;42.144;25.200;2022-08-24T11:37:49;99651.34;;;32.70;47.96
71149;BME280;59072;42.144;25.200;2022-08-24T11:40:17;99639.78;;;32.27;49.02
71149;BME280;59072;42.144;25.200;2022-08-24T11:45:42;99647.56;;;31.91;47.52
71149;BME280;59072;42.144;25.200;2022-08-24T11:53:40;99653.13;;;31.64;51.38
71149;BME280;59072;42.144;25.200;2022-08-24T11:56:24;99654.50;;;32.38;47.42
71149;BME280;59072;42.144;25.200;2022-08-24T11:59:07;99657.66;;;32.37;47.50
71149;BME280;59072;42.144;25.200;2022-08-24T12:04:48;99653.91;;;32.90;49.88
71149;BME280;59072;42.144;25.200;2022-08-24T12:07:22;99654.94;;;33.15;47.56
71149;BME280;59072;42.144;25.200;2022-08-24T12:15:53;99652.53;;;33.10;46.91
71149;BME280;59072;42.144;25.200;2022-08-24T12:20:50;99641.38;;;32.28;49.44
71149;BME280;59072;42.144;25.200;2022-08-24T12:24:30;99640.03;;;32.15;51.33
71149;BME280;59072;42.144;25.200;2022-08-24T12:26:55;99637.69;;;32.17;46.40
71149;BME280;59072;42.144;25.200;2022-08-24T12:29:44;99635.69;;;32.48;48.68
71149;BME280;59072;42.144;25.200;2022-08-24T12:32:16;99621.44;;;32.79;49.70
71149;BME280;59072;42.144;25.200;2022-08-24T12:45:17;99607.09;;;33.59;44.85
71149;BME280;59072;42.144;25.200;2022-08-24T12:53:21;99620.72;;;33.97;43.21
71149;BME280;59072;42.144;25.200;2022-08-24T13:00:50;99613.56;;;33.22;43.74
71149;BME280;59072;42.144;25.200;2022-08-24T13:03:47;99605.72;;;32.87;47.22
71149;BME280;59072;42.144;25.200;2022-08-24T13:06:37;99586.34;;;32.80;45.09
71149;BME280;59072;42.144;25.200;2022-08-24T13:09:08;99573.47;;;32.54;46.29
71149;BME280;59072;42.144;25.200;2022-08-24T13:11:35;99577.44;;;33.01;45.37
71149;BME280;59072;42.144;25.200;2022-08-24T13:29:43;99556.28;;;33.19;44.76
71149;BME280;59072;42.144;25.200;2022-08-24T13:32:21;99567.31;;;32.68;44.61
71149;BME280;59072;42.144;25.200;2022-08-24T13:34:55;99568.91;;;32.72;46.69
71149;BME280;59072;42.144;25.200;2022-08-24T13:37:24;99573.53;;;32.57;45.79
71149;BME280;59072;42.144;25.200;2022-08-24T13:40:16;99579.09;;;32.27;47.79
71149;BME280;59072;42.144;25.200;2022-08-24T13:49:15;99576.13;;;31.26;49.14
71149;BME280;59072;42.144;25.200;2022-08-24T13:51:32;99583.72;;;31.89;48.46
71149;BME280;59072;42.144;25.200;2022-08-24T13:54:25;99566.41;;;31.58;47.39
71149;BME280;59072;42.144;25.200;2022-08-24T13:57:23;99567.97;;;31.86;46.96
71149;BME280;59072;42.144;25.200;2022-08-24T14:05:00;99567.97;;;31.86;44.81
71149;BME280;59072;42.144;25.200;2022-08-24T14:07:41;99570.06;;;31.96;47.17
71149;BME280;59072;42.144;25.200;2022-08-24T14:10:26;99561.91;;;31.77;45.83
71149;BME280;59072;42.144;25.200;2022-08-24T14:18:48;99551.72;;;32.11;46.83
71149;BME280;59072;42.144;25.200;2022-08-24T14:21:19;99525.00;;;31.85;45.63
71149;BME280;59072;42.144;25.200;2022-08-24T14:24:10;99550.88;;;31.77;45.14
71149;BME280;59072;42.144;25.200;2022-08-24T14:42:20;99563.78;;;33.85;40.20
71149;BME280;59072;42.144;25.200;2022-08-24T14:44:49;99554.00;;;34.09;39.74
71149;BME280;59072;42.144;25.200;2022-08-24T14:47:30;99563.13;;;34.24;37.49
71149;BME280;59072;42.144;25.200;2022-08-24T14:50:21;99565.13;;;34.16;38.30
71149;BME280;59072;42.144;25.200;2022-08-24T14:55:30;99572.75;;;35.20;35.99
71149;BME280;59072;42.144;25.200;2022-08-24T14:58:13;99566.41;;;35.19;37.61
71149;BME280;59072;42.144;25.200;2022-08-24T15:08:51;99547.28;;;35.65;34.06
71149;BME280;59072;42.144;25.200;2022-08-24T15:11:23;99537.31;;;35.85;34.57
71149;BME280;59072;42.144;25.200;2022-08-24T15:14:05;99551.00;;;36.25;32.85
71149;BME280;59072;42.144;25.200;2022-08-24T15:26:54;99563.06;;;35.89;32.74
71149;BME280;59072;42.144;25.200;2022-08-24T15:29:25;99550.34;;;35.95;33.75
71149;BME280;59072;42.144;25.200;2022-08-24T15:32:05;99552.38;;;36.54;32.66
71149;BME280;59072;42.144;25.200;2022-08-24T15:34:37;99546.06;;;36.54;31.56
71149;BME280;59072;42.144;25.200;2022-08-24T15:37:03;99558.16;;;36.22;32.09
71149;BME280;59072;42.144;25.200;2022-08-24T15:39:32;99558.91;;;36.26;32.27
71149;BME280;59072;42.144;25.200;2022-08-24T15:41:58;99571.28;;;36.77;31.39
71149;BME280;59072;42.144;25.200;2022-08-24T15:44:29;99568.13;;;36.09;32.29
71149;BME280;59072;42.144;25.200;2022-08-24T15:47:02;99579.78;;;35.57;33.66
71149;BME280;59072;42.144;25.200;2022-08-24T15:49:33;99558.03;;;34.55;35.54
71149;BME280;59072;42.144;25.200;2022-08-24T15:52:07;99572.66;;;34.37;35.97
71149;BME280;59072;42.144;25.200;2022-08-24T15:54:38;99556.03;;;34.34;37.05
71149;BME280;59072;42.144;25.200;2022-08-24T15:57:25;99566.41;;;34.73;35.68
71149;BME280;59072;42.144;25.200;2022-08-24T15:59:54;99580.63;;;34.64;35.45
71149;BME280;59072;42.144;25.200;2022-08-24T16:02:29;99586.91;;;34.47;36.70
71149;BME280;59072;42.144;25.200;2022-08-24T16:10:49;99594.50;;;33.66;38.23
71149;BME280;59072;42.144;25.200;2022-08-24T16:15:50;99603.53;;;33.07;39.93
71149;BME280;59072;42.144;25.200;2022-08-24T16:18:18;99601.34;;;32.82;39.68
71149;BME280;59072;42.144;25.200;2022-08-24T16:20:45;99599.53;;;32.56;40.57
71149;BME280;59072;42.144;25.200;2022-08-24T16:23:32;99598.06;;;32.32;41.30
71149;BME280;59072;42.144;25.200;2022-08-24T16:26:26;99598.19;;;31.79;42.23
71149;BME280;59072;42.144;25.200;2022-08-24T16:28:55;99593.94;;;31.05;43.98
71149;BME280;59072;42.144;25.200;2022-08-24T16:34:19;99606.97;;;30.42;45.79
71149;BME280;59072;42.144;25.200;2022-08-24T16:36:45;99613.91;;;30.17;46.62
71149;BME280;59072;42.144;25.200;2022-08-24T16:39:10;99612.34;;;29.64;48.10
71149;BME280;59072;42.144;25.200;2022-08-24T16:41:36;99600.47;;;29.41;48.72
71149;BME280;59072;42.144;25.200;2022-08-24T16:44:05;99622.53;;;29.29;49.44
71149;BME280;59072;42.144;25.200;2022-08-24T16:46:33;99626.16;;;29.33;49.89
71149;BME280;59072;42.144;25.200;2022-08-24T16:48:59;99629.94;;;28.96;50.43
71149;BME280;59072;42.144;25.200;2022-08-24T16:51:24;99634.19;;;28.94;50.94
71149;BME280;59072;42.144;25.200;2022-08-24T16:53:50;99634.53;;;28.92;50.39
71149;BME280;59072;42.144;25.200;2022-08-24T16:56:16;99627.81;;;28.90;50.44
71149;BME280;59072;42.144;25.200;2022-08-24T16:58:42;99644.97;;;28.87;51.47
71149;BME280;59072;42.144;25.200;2022-08-24T17:01:07;99648.50;;;28.71;53.19